Time;durP1;ratioP1;P1;durP2;ratioP2;P2;SDS_P1;SDS_P2;PMS_P1;PMS_P2;Temp;Humidity;BMP_temperature;BMP_pressure;BME280_temperature;BME280_humidity;BME280_pressure;Samples;Min_cycle;Max_cycle;Signal;HPM_P1;HPM_P2
2024/03/25 00:02:14;;;;;;;43.08;23.77;;;153.80;2252.80;;;;;;5021018;28;20017;-75
2024/03/25 00:04:40;;;;;;;37.78;22.90;;;153.80;2252.80;;;;;;5030395;28;20443;-73
2024/03/25 00:07:06;;;;;;;23.98;16.67;;;153.80;2252.80;;;;;;5031686;28;20042;-71
2024/03/25 00:09:32;;;;;;;35.75;24.67;;;153.90;2252.80;;;;;;5025576;28;20191;-73
2024/03/25 00:11:58;;;;;;;38.97;25.70;;;153.80;2252.80;;;;;;5011709;28;20022;-75
2024/03/25 00:14:23;;;;;;;39.67;27.85;;;153.80;2252.80;;;;;;5025653;28;20018;-72
2024/03/25 00:16:50;;;;;;;24.00;15.85;;;153.80;2252.80;;;;;;5012455;28;20423;-72
2024/03/25 00:19:16;;;;;;;25.45;18.83;;;153.80;2252.80;;;;;;5029904;28;20025;-76
2024/03/25 00:21:42;;;;;;;39.88;28.75;;;153.70;2252.80;;;;;;5030356;28;20033;-72
2024/03/25 00:24:08;;;;;;;39.05;26.13;;;153.60;2252.80;;;;;;5026700;28;20015;-76
2024/03/25 00:26:34;;;;;;;29.30;17.30;;;128.90;2252.80;;;;;;5029018;28;20029;-72
2024/03/25 00:29:00;;;;;;;33.70;24.55;;;128.90;2252.80;;;;;;5025151;28;20025;-72
2024/03/25 00:31:26;;;;;;;33.30;23.17;;;128.90;2252.80;;;;;;5028196;28;20407;-72
2024/03/25 00:33:51;;;;;;;41.75;28.08;;;128.90;2252.80;;;;;;5017961;28;20049;-71
2024/03/25 00:36:17;;;;;;;39.00;29.23;;;128.90;2252.80;;;;;;5021150;28;20034;-72
2024/03/25 00:38:43;;;;;;;29.77;19.05;;;128.70;2252.80;;;;;;5029100;28;20523;-72
2024/03/25 00:41:09;;;;;;;16.70;10.98;;;128.60;2252.80;;;;;;5016477;28;20029;-73
2024/03/25 00:43:35;;;;;;;22.25;13.13;;;128.50;2252.80;;;;;;5025549;28;20030;-71
2024/03/25 00:46:01;;;;;;;27.92;15.70;;;128.40;2252.80;;;;;;4998195;28;20460;-75
2024/03/25 00:48:27;;;;;;;23.17;12.60;;;128.00;2252.80;;;;;;4998309;28;20021;-73
2024/03/25 00:50:53;;;;;;;17.60;10.55;;;103.20;2227.20;;;;;;5030989;28;20037;-71
2024/03/25 00:53:18;;;;;;;16.17;9.02;;;103.10;2227.20;;;;;;5029843;28;20101;-71
2024/03/25 00:55:45;;;;;;;10.00;6.45;;;103.10;2227.20;;;;;;5030954;28;20477;-73
2024/03/25 00:58:11;;;;;;;10.52;5.97;;;103.00;2227.20;;;;;;5025987;28;20372;-72
2024/03/25 01:00:36;;;;;;;8.82;5.40;;;103.00;2227.20;;;;;;5022031;28;20030;-74
2024/03/25 01:03:02;;;;;;;16.13;10.00;;;103.00;2227.20;;;;;;5029876;28;20029;-75
2024/03/25 01:05:28;;;;;;;9.35;6.53;;;103.00;2227.20;;;;;;5030172;28;20068;-72
2024/03/25 01:07:54;;;;;;;12.02;7.85;;;103.00;2227.20;;;;;;5026654;28;20542;-75
2024/03/25 01:10:20;;;;;;;11.90;7.80;;;103.00;2227.20;;;;;;5028947;28;20037;-72
2024/03/25 01:12:46;;;;;;;11.93;7.60;;;103.00;2227.20;;;;;;5020764;28;20050;-76
2024/03/25 01:15:12;;;;;;;10.88;6.20;;;103.00;2227.20;;;;;;4994291;28;20596;-71
2024/03/25 01:17:38;;;;;;;11.30;6.85;;;103.00;2227.20;;;;;;4995282;28;20026;-70
2024/03/25 01:20:08;;;;;;;13.45;7.32;;;103.10;2227.20;;;;;;4993090;28;20031;-74
2024/03/25 01:22:34;;;;;;;10.15;6.35;;;103.00;2227.20;;;;;;4992438;28;20069;-75
2024/03/25 01:25:00;;;;;;;9.20;6.05;;;103.00;2227.20;;;;;;4996676;28;20066;-71
2024/03/25 01:27:26;;;;;;;15.15;10.13;;;103.00;2227.20;;;;;;5001174;28;20045;-72
2024/03/25 01:29:52;;;;;;;10.75;7.35;;;103.00;2227.20;;;;;;5001011;28;20546;-73
2024/03/25 01:32:18;;;;;;;15.40;11.77;;;102.90;2227.20;;;;;;5005765;28;20083;-74
2024/03/25 01:34:43;;;;;;;15.02;11.85;;;102.90;2227.20;;;;;;5022679;28;20029;-74
2024/03/25 01:37:09;;;;;;;8.35;6.38;;;103.00;2227.20;;;;;;5007070;28;20469;-72
2024/03/25 01:39:37;;;;;;;11.15;7.25;;;103.00;2227.20;;;;;;5015795;28;20030;-74
2024/03/25 01:42:03;;;;;;;9.48;6.03;;;103.00;2227.20;;;;;;5018377;28;20023;-72
2024/03/25 01:44:29;;;;;;;10.77;6.55;;;103.00;2227.20;;;;;;5016744;28;20044;-76
2024/03/25 01:46:55;;;;;;;9.35;5.30;;;103.10;2227.20;;;;;;5030596;28;20025;-71
2024/03/25 01:49:21;;;;;;;12.10;6.85;;;103.00;2227.20;;;;;;5029822;28;20030;-70
2024/03/25 01:51:48;;;;;;;11.32;6.70;;;103.00;2227.20;;;;;;5020844;28;20157;-72
2024/03/25 01:54:16;;;;;;;30.60;20.52;;;103.00;2227.20;;;;;;4999542;28;20026;-75
2024/03/25 01:56:43;;;;;;;13.93;8.70;;;103.00;2227.20;;;;;;5005154;28;20026;-74
2024/03/25 01:59:10;;;;;;;14.65;11.60;;;103.00;2227.20;;;;;;4983771;28;20486;-74
2024/03/25 02:01:36;;;;;;;13.68;8.07;;;103.00;2227.20;;;;;;5003596;28;20050;-73
2024/03/25 02:04:03;;;;;;;12.30;6.13;;;103.00;2227.20;;;;;;4999699;28;20038;-72
2024/03/25 02:06:31;;;;;;;8.48;5.25;;;103.00;2227.20;;;;;;4994805;28;20433;-73
2024/03/25 02:08:58;;;;;;;10.20;6.03;;;103.00;2227.20;;;;;;4999051;28;20045;-75
2024/03/25 02:11:25;;;;;;;17.00;6.53;;;102.90;2227.20;;;;;;4997895;28;20030;-70
2024/03/25 02:13:51;;;;;;;9.40;5.20;;;102.90;2227.20;;;;;;4981304;28;20472;-73
2024/03/25 02:16:17;;;;;;;9.40;5.25;;;102.90;2227.20;;;;;;4996003;28;20027;-73
2024/03/25 02:18:43;;;;;;;9.38;4.97;;;102.90;2227.20;;;;;;4997017;28;20030;-73
2024/03/25 02:21:10;;;;;;;10.48;5.07;;;102.80;2227.20;;;;;;4999722;28;20081;-76
2024/03/25 02:23:38;;;;;;;8.90;5.40;;;102.90;2227.20;;;;;;5002565;28;20018;-73
2024/03/25 02:26:04;;;;;;;9.82;6.45;;;102.90;2227.20;;;;;;5001509;28;20030;-74
2024/03/25 02:28:30;;;;;;;8.70;4.72;;;102.90;2227.20;;;;;;5002340;28;20049;-72
2024/03/25 02:30:56;;;;;;;29.00;14.13;;;102.90;2227.20;;;;;;4982938;28;20042;-74
2024/03/25 02:33:22;;;;;;;29.52;17.85;;;102.90;2227.20;;;;;;5008061;28;20430;-75
2024/03/25 02:35:48;;;;;;;15.65;7.68;;;102.90;2227.20;;;;;;5029428;28;20026;-72
2024/03/25 02:38:15;;;;;;;16.38;8.95;;;103.00;2227.20;;;;;;5027397;28;20041;-78
2024/03/25 02:40:50;;;;;;;16.60;11.27;;;103.00;2227.20;;;;;;5097524;27;20129;-75
2024/03/25 02:43:19;;;;;;;13.75;9.35;;;103.10;2227.20;;;;;;5092591;28;20037;-73
2024/03/25 02:45:45;;;;;;;112.65;56.65;;;103.10;2227.20;;;;;;5061865;28;20024;-72
2024/03/25 02:48:11;;;;;;;167.77;88.25;;;103.10;2227.20;;;;;;5066244;28;20112;-75
2024/03/25 02:50:37;;;;;;;107.60;52.95;;;103.10;2227.20;;;;;;5066455;28;20028;-76
2024/03/25 02:53:03;;;;;;;38.97;21.70;;;103.10;2227.20;;;;;;5078297;28;20025;-75
2024/03/25 02:55:28;;;;;;;15.45;9.88;;;103.10;2227.20;;;;;;5059577;28;20084;-77
2024/03/25 02:57:54;;;;;;;16.00;8.00;;;103.10;2227.20;;;;;;5065961;28;20103;-76
2024/03/25 03:00:20;;;;;;;11.55;7.32;;;103.00;2227.20;;;;;;5062569;28;20041;-77
2024/03/25 03:02:46;;;;;;;13.32;7.80;;;103.10;2227.20;;;;;;5066441;28;20032;-75
2024/03/25 03:05:12;;;;;;;14.32;9.60;;;103.10;2227.20;;;;;;5066190;28;20111;-77
2024/03/25 03:07:38;;;;;;;19.05;12.55;;;103.20;2227.20;;;;;;5066303;28;20047;-76
2024/03/25 03:10:04;;;;;;;15.52;9.85;;;103.20;2227.20;;;;;;5065735;28;20033;-78
2024/03/25 03:12:30;;;;;;;15.75;10.60;;;103.10;2227.20;;;;;;5066219;28;20028;-75
2024/03/25 03:14:55;;;;;;;24.45;17.10;;;103.10;2227.20;;;;;;5066428;28;20040;-79
2024/03/25 03:17:21;;;;;;;19.23;12.57;;;103.10;2227.20;;;;;;5065962;28;20475;-76
2024/03/25 03:19:47;;;;;;;16.80;8.35;;;103.10;2227.20;;;;;;5065743;28;20060;-78
2024/03/25 03:22:13;;;;;;;14.23;8.48;;;102.90;2227.20;;;;;;5065812;28;20021;-77
2024/03/25 03:24:39;;;;;;;12.77;7.38;;;103.10;2227.20;;;;;;5065436;28;20039;-78
2024/03/25 03:27:04;;;;;;;10.73;7.07;;;103.00;2227.20;;;;;;5065586;28;20055;-74
2024/03/25 03:29:30;;;;;;;18.70;10.95;;;103.00;2227.20;;;;;;5065409;28;20033;-76
2024/03/25 03:31:56;;;;;;;27.20;13.82;;;103.10;2227.20;;;;;;5065736;28;20032;-75
2024/03/25 03:34:22;;;;;;;24.85;19.02;;;103.00;2227.20;;;;;;5065199;28;20029;-75
2024/03/25 03:36:48;;;;;;;24.02;15.63;;;103.00;2227.20;;;;;;5065528;28;20383;-76
2024/03/25 03:39:15;;;;;;;18.88;13.05;;;103.00;2227.20;;;;;;5062997;28;20483;-74
2024/03/25 03:41:41;;;;;;;27.83;15.27;;;103.00;2227.20;;;;;;5065206;28;20463;-77
2024/03/25 03:44:09;;;;;;;20.63;14.45;;;103.00;2227.20;;;;;;5065175;28;20020;-74
2024/03/25 03:46:35;;;;;;;12.77;9.00;;;103.00;2227.20;;;;;;5063081;28;20383;-77
2024/03/25 03:49:01;;;;;;;12.50;6.20;;;103.00;2227.20;;;;;;5064726;28;20027;-76
2024/03/25 03:51:26;;;;;;;11.88;6.55;;;103.00;2227.20;;;;;;5056120;28;20068;-75
2024/03/25 03:53:52;;;;;;;10.60;6.72;;;103.00;2227.20;;;;;;5051326;28;20029;-74
2024/03/25 03:56:18;;;;;;;16.92;9.63;;;103.10;2227.20;;;;;;5050198;28;20044;-77
2024/03/25 03:58:44;;;;;;;15.25;9.43;;;103.10;2227.20;;;;;;5051720;28;20380;-77
2024/03/25 04:01:19;;;;;;;17.90;9.45;;;103.20;2227.20;;;;;;5051801;28;20125;-78
2024/03/25 04:03:45;;;;;;;56.08;28.67;;;103.30;2227.20;;;;;;5051597;28;20024;-77
2024/03/25 04:06:12;;;;;;;28.67;18.15;;;103.30;2227.20;;;;;;5051477;28;20098;-75
2024/03/25 04:08:39;;;;;;;13.23;6.78;;;128.00;2252.80;;;;;;5051606;28;20029;-76
2024/03/25 04:11:09;;;;;;;11.43;6.22;;;128.00;2252.80;;;;;;5051275;28;20013;-75
2024/03/25 04:13:35;;;;;;;12.25;7.65;;;128.00;2252.80;;;;;;5051690;28;20071;-75
2024/03/25 04:16:04;;;;;;;13.48;9.70;;;128.10;2252.80;;;;;;5049894;28;20036;-72
2024/03/25 04:18:30;;;;;;;12.50;7.95;;;128.10;2252.80;;;;;;5051687;28;20040;-73
2024/03/25 04:20:56;;;;;;;50.20;23.92;;;128.20;2252.80;;;;;;5051603;28;20024;-76
2024/03/25 04:23:22;;;;;;;36.90;18.70;;;128.20;2252.80;;;;;;5051034;28;20029;-75
2024/03/25 04:25:49;;;;;;;30.33;17.98;;;128.30;2252.80;;;;;;5051355;28;20079;-74
2024/03/25 04:28:15;;;;;;;35.67;19.23;;;128.30;2252.80;;;;;;5051267;28;20025;-74
2024/03/25 04:30:41;;;;;;;15.50;8.82;;;128.20;2252.80;;;;;;5051074;28;20033;-71
2024/03/25 04:33:08;;;;;;;13.52;7.28;;;128.10;2252.80;;;;;;5051522;28;20532;-75
2024/03/25 04:35:34;;;;;;;48.42;23.98;;;128.10;2252.80;;;;;;5050901;28;20017;-72
2024/03/25 04:37:59;;;;;;;60.17;29.63;;;128.10;2252.80;;;;;;5051020;28;20037;-75
2024/03/25 04:40:25;;;;;;;36.55;20.58;;;128.10;2252.80;;;;;;5050569;28;20427;-76
2024/03/25 04:42:51;;;;;;;19.67;9.73;;;128.10;2252.80;;;;;;5051129;28;20031;-75
2024/03/25 04:45:17;;;;;;;22.40;11.27;;;128.20;2252.80;;;;;;5051227;28;20021;-72
2024/03/25 04:47:44;;;;;;;16.13;8.63;;;128.20;2252.80;;;;;;5048706;28;20479;-76
2024/03/25 04:50:10;;;;;;;14.38;7.43;;;128.20;2252.80;;;;;;5051104;28;20024;-75
2024/03/25 04:52:36;;;;;;;10.65;6.30;;;128.20;2252.80;;;;;;5050983;28;20036;-76
2024/03/25 04:55:02;;;;;;;13.00;5.80;;;128.00;2252.80;;;;;;5050201;28;20021;-72
2024/03/25 04:57:27;;;;;;;15.10;8.55;;;128.00;2252.80;;;;;;5051012;28;20066;-71
2024/03/25 04:59:53;;;;;;;26.73;13.32;;;128.00;2252.80;;;;;;5050571;28;20120;-72
2024/03/25 05:02:19;;;;;;;16.08;8.90;;;128.20;2252.80;;;;;;5049528;28;20039;-75
2024/03/25 05:04:45;;;;;;;11.68;6.05;;;128.10;2252.80;;;;;;5048728;28;20036;-73
2024/03/25 05:07:11;;;;;;;9.88;5.75;;;128.00;2252.80;;;;;;5050272;28;20025;-75
2024/03/25 05:09:37;;;;;;;10.77;6.50;;;128.10;2252.80;;;;;;5050320;28;20044;-75
2024/03/25 05:12:02;;;;;;;10.63;6.05;;;128.10;2252.80;;;;;;5050496;28;20024;-76
2024/03/25 05:14:28;;;;;;;12.45;6.82;;;103.30;2227.20;;;;;;5050635;28;20029;-76
2024/03/25 05:16:54;;;;;;;8.88;5.72;;;103.30;2227.20;;;;;;5050442;28;20035;-77
2024/03/25 05:19:20;;;;;;;9.05;5.60;;;103.30;2227.20;;;;;;5050199;28;20033;-76
2024/03/25 05:21:46;;;;;;;10.57;5.78;;;103.30;2227.20;;;;;;5050333;28;20029;-77
2024/03/25 05:24:11;;;;;;;9.77;5.90;;;103.30;2227.20;;;;;;5049660;28;20383;-74
2024/03/25 05:26:37;;;;;;;8.68;5.13;;;128.00;2252.80;;;;;;5050442;28;20036;-74
2024/03/25 05:29:03;;;;;;;11.95;5.35;;;128.10;2252.80;;;;;;5050093;28;20045;-76
2024/03/25 05:31:30;;;;;;;10.32;6.50;;;128.20;2252.80;;;;;;5040439;28;20029;-75
2024/03/25 05:33:56;;;;;;;10.27;5.25;;;128.20;2252.80;;;;;;5050149;28;20027;-76
2024/03/25 05:36:22;;;;;;;11.13;5.70;;;128.20;2252.80;;;;;;5049905;28;20025;-74
2024/03/25 05:38:48;;;;;;;21.27;14.35;;;128.30;2252.80;;;;;;5049405;28;20045;-78
2024/03/25 05:41:13;;;;;;;9.63;4.90;;;128.40;2252.80;;;;;;5049950;28;20047;-76
2024/03/25 05:43:39;;;;;;;8.15;3.72;;;128.40;2252.80;;;;;;5049981;28;20031;-76
2024/03/25 05:46:05;;;;;;;7.95;3.75;;;128.40;2252.80;;;;;;5050120;28;20035;-76
2024/03/25 05:48:31;;;;;;;9.88;5.50;;;128.60;2252.80;;;;;;5049635;28;20367;-78
2024/03/25 05:51:07;;;;;;;8.00;4.78;;;128.80;2252.80;;;;;;5043632;28;20029;-76
2024/03/25 05:53:33;;;;;;;8.75;5.03;;;153.60;2252.80;;;;;;5043607;28;20013;-76
2024/03/25 05:55:59;;;;;;;15.18;9.00;;;153.80;2252.80;;;;;;5049884;28;20029;-77
2024/03/25 05:58:25;;;;;;;20.88;11.52;;;153.90;2252.80;;;;;;5049881;28;20083;-76
2024/03/25 06:00:55;;;;;;;39.47;23.92;;;154.10;2252.80;;;;;;5049585;28;20039;-76
2024/03/25 06:03:21;;;;;;;18.92;12.38;;;154.10;2252.80;;;;;;5047208;28;20063;-75
2024/03/25 06:05:47;;;;;;;17.27;12.60;;;154.30;2252.80;;;;;;5049607;28;20021;-74
2024/03/25 06:08:26;;;;;;;19.35;15.45;;;154.40;2252.80;;;;;;5049313;28;20497;-71
2024/03/25 06:10:53;;;;;;;12.98;10.15;;;154.50;2252.80;;;;;;5039586;28;20124;-70
2024/03/25 06:13:19;;;;;;;16.05;12.60;;;154.50;2252.80;;;;;;5049257;28;20123;-77
2024/03/25 06:15:45;;;;;;;11.27;7.68;;;179.20;2252.80;;;;;;5049546;28;20036;-72
2024/03/25 06:18:11;;;;;;;10.02;4.75;;;179.30;2252.80;;;;;;5049007;28;20371;-74
2024/03/25 06:20:37;;;;;;;11.00;8.35;;;179.40;2252.80;;;;;;5049618;28;20051;-74
2024/03/25 06:23:03;;;;;;;10.27;6.93;;;179.60;2252.80;;;;;;5049058;28;20021;-77
2024/03/25 06:25:30;;;;;;;11.70;9.63;;;180.00;2252.80;;;;;;5049286;28;20021;-76
2024/03/25 06:27:56;;;;;;;13.45;8.50;;;204.80;2252.80;;;;;;5049161;28;20455;-75
2024/03/25 06:35:52;;;;;;;17.35;11.02;;;205.50;2252.80;;;;;;5037286;28;20116;-71
2024/03/25 06:38:18;;;;;;;16.50;12.13;;;230.50;2252.80;;;;;;5048909;28;20050;-76
2024/03/25 06:40:45;;;;;;;17.77;11.68;;;230.90;2252.80;;;;;;5038204;28;20398;-71
2024/03/25 06:43:11;;;;;;;30.60;20.05;;;230.90;2252.80;;;;;;5035498;28;20029;-71
2024/03/25 06:45:37;;;;;;;19.75;14.18;;;231.10;2252.80;;;;;;5031871;28;20052;-72
2024/03/25 06:48:04;;;;;;;29.92;20.52;;;308.00;2304.00;;;;;;5033006;28;20464;-77
2024/03/25 06:50:30;;;;;;;362.45;208.70;;;410.20;2176.00;;;;;;5041396;28;20151;-74
2024/03/25 06:52:55;;;;;;;327.15;184.35;;;486.50;1894.40;;;;;;5033137;28;20029;-78
2024/03/25 06:55:24;;;;;;;19.42;13.70;;;538.10;1664.00;;;;;;5047950;28;20036;-74
2024/03/25 06:57:50;;;;;;;10.43;7.63;;;589.10;1561.60;;;;;;5041150;28;20044;-72
2024/03/25 07:00:16;;;;;;;19.20;12.65;;;614.60;1459.20;;;;;;5042558;28;20029;-73
2024/03/25 07:02:43;;;;;;;749.78;465.80;;;640.20;1382.40;;;;;;5049149;28;20104;-71
2024/03/25 07:05:09;;;;;;;152.25;84.57;;;665.70;1356.80;;;;;;5048583;28;20026;-75
2024/03/25 07:07:35;;;;;;;777.85;432.63;;;666.50;1331.20;;;;;;5047491;28;20100;-72
2024/03/25 07:10:01;;;;;;;588.75;351.30;;;666.50;1331.20;;;;;;5035202;28;20113;-77
2024/03/25 07:12:28;;;;;;;295.83;147.02;;;665.90;1356.80;;;;;;5048924;28;20024;-76
2024/03/25 07:14:54;;;;;;;944.72;537.90;;;589.00;1484.80;;;;;;5048665;28;20368;-77
2024/03/25 07:17:21;;;;;;;103.18;52.95;;;537.80;1561.60;;;;;;5049028;28;20078;-73
2024/03/25 07:19:48;;;;;;;31.90;19.63;;;486.90;1638.40;;;;;;5048713;28;20112;-76
2024/03/25 07:22:14;;;;;;;22.33;16.25;;;436.00;1715.20;;;;;;5048735;28;20021;-75
2024/03/25 07:24:40;;;;;;;33.42;19.95;;;410.20;1843.20;;;;;;5048235;28;20473;-76
2024/03/25 07:27:07;;;;;;;14.40;10.88;;;384.60;1868.80;;;;;;5049943;28;20060;-75
2024/03/25 07:29:33;;;;;;;13.75;8.20;;;359.20;1920.00;;;;;;5051938;28;20024;-75
2024/03/25 07:31:59;;;;;;;15.65;9.15;;;358.40;1996.80;;;;;;5052395;28;20025;-74
2024/03/25 07:34:25;;;;;;;13.43;6.88;;;333.40;2048.00;;;;;;5052318;28;20487;-76
2024/03/25 07:36:51;;;;;;;10.95;7.65;;;333.10;2099.20;;;;;;5051652;28;20020;-73
2024/03/25 07:39:17;;;;;;;19.73;12.20;;;333.10;2124.80;;;;;;5047074;28;20450;-75
2024/03/25 07:41:43;;;;;;;10.18;6.22;;;333.00;2150.40;;;;;;5061991;28;20121;-72
2024/03/25 07:44:09;;;;;;;16.75;11.82;;;332.80;2150.40;;;;;;5046107;28;20100;-74
2024/03/25 07:46:35;;;;;;;43.35;28.02;;;308.00;2150.40;;;;;;5051595;28;20079;-72
2024/03/25 07:49:01;;;;;;;16.02;10.00;;;308.00;2176.00;;;;;;5051734;28;20044;-73
2024/03/25 07:51:26;;;;;;;29.42;18.15;;;307.90;2176.00;;;;;;5052147;28;20025;-73
2024/03/25 07:53:52;;;;;;;20.75;14.45;;;308.00;2201.60;;;;;;5051099;28;20024;-75
2024/03/25 07:56:18;;;;;;;15.45;11.13;;;333.20;2150.40;;;;;;5052016;28;20020;-75
2024/03/25 07:58:44;;;;;;;41.42;31.00;;;461.20;1868.80;;;;;;5049149;28;20033;-74
2024/03/25 08:01:10;;;;;;;39.03;31.98;;;486.40;1740.80;;;;;;5051871;28;20104;-76
2024/03/25 08:03:36;;;;;;;5.88;4.80;;;538.10;1638.40;;;;;;5051664;28;20028;-73
2024/03/25 08:06:02;;;;;;;9.05;7.38;;;614.60;1484.80;;;;;;5050196;28;20102;-77
2024/03/25 08:08:29;;;;;;;18.58;15.60;;;666.00;1382.40;;;;;;5051508;28;20083;-74
2024/03/25 08:10:55;;;;;;;14.23;12.93;;;717.20;1280.00;;;;;;5049937;28;20093;-75
2024/03/25 08:13:21;;;;;;;8.32;7.47;;;743.10;1228.80;;;;;;5051692;28;20033;-73
2024/03/25 08:15:48;;;;;;;10.57;9.55;;;768.00;1177.60;;;;;;5051526;28;20463;-72
2024/03/25 08:18:13;;;;;;;7.07;5.35;;;742.80;1177.60;;;;;;5051016;28;20021;-75
2024/03/25 08:20:39;;;;;;;14.68;11.82;;;666.50;1228.80;;;;;;5051058;28;20032;-75
2024/03/25 08:23:05;;;;;;;53.33;35.72;;;640.40;1280.00;;;;;;5051038;28;20021;-73
2024/03/25 08:25:31;;;;;;;6.45;5.63;;;589.10;1382.40;;;;;;5050668;28;20376;-74
2024/03/25 08:27:58;;;;;;;7.10;5.00;;;614.90;1331.20;;;;;;5051148;28;20025;-75
2024/03/25 08:30:24;;;;;;;14.88;12.30;;;615.10;1305.60;;;;;;5040657;28;20112;-78
2024/03/25 08:32:50;;;;;;;4.28;3.30;;;691.70;1203.20;;;;;;5051297;28;20537;-72
2024/03/25 08:35:16;;;;;;;4.18;2.95;;;742.60;1177.60;;;;;;5050251;28;20102;-74
2024/03/25 08:37:42;;;;;;;12.50;7.20;;;768.10;1126.40;;;;;;5050873;28;20060;-72
2024/03/25 08:40:09;;;;;;;15.57;11.60;;;794.00;1100.80;;;;;;5050411;28;20057;-74
2024/03/25 08:42:35;;;;;;;127.35;84.65;;;819.90;1049.60;;;;;;5040427;28;20024;-77
2024/03/25 08:45:01;;;;;;;85.45;57.65;;;845.10;1049.60;;;;;;5041411;28;20033;-75
2024/03/25 08:47:27;;;;;;;25.58;16.08;;;845.40;1049.60;;;;;;5050954;28;20029;-77
2024/03/25 08:49:52;;;;;;;3.35;2.88;;;870.50;998.40;;;;;;5050711;28;20131;-77
2024/03/25 08:52:18;;;;;;;266.88;139.77;;;844.90;1024.00;;;;;;5050636;28;20546;-73
2024/03/25 08:54:44;;;;;;;52.17;30.65;;;820.10;1024.00;;;;;;5050380;28;20426;-73
2024/03/25 08:57:10;;;;;;;188.45;124.43;;;793.60;1075.20;;;;;;5049198;28;20033;-73
2024/03/25 08:59:36;;;;;;;120.80;88.90;;;742.90;1100.80;;;;;;5050849;28;20388;-72
2024/03/25 09:02:02;;;;;;;14.27;9.75;;;692.00;1126.40;;;;;;5050242;28;20025;-73
2024/03/25 09:04:28;;;;;;;66.47;47.63;;;665.60;1203.20;;;;;;5050612;28;20024;-74
2024/03/25 09:06:54;;;;;;;3.72;2.60;;;614.90;1280.00;;;;;;5050068;28;20028;-75
2024/03/25 09:12:04;;;;;;;6.03;4.22;;;538.30;1356.80;;;;;;5050273;28;20035;-74
2024/03/25 09:14:30;;;;;;;3.63;2.38;;;537.70;1382.40;;;;;;5050545;28;20025;-75
2024/03/25 09:16:55;;;;;;;42.42;25.85;;;512.70;1433.60;;;;;;5049673;28;20441;-76
2024/03/25 09:19:21;;;;;;;6.85;3.30;;;512.20;1433.60;;;;;;5050225;28;20041;-74
2024/03/25 09:21:47;;;;;;;4.30;2.80;;;487.00;1408.00;;;;;;5048287;28;20078;-72
2024/03/25 09:24:13;;;;;;;57.83;32.28;;;486.80;1408.00;;;;;;5048894;28;20025;-75
2024/03/25 09:26:39;;;;;;;11.63;8.43;;;486.70;1459.20;;;;;;5049706;28;20173;-74
2024/03/25 09:29:05;;;;;;;9.40;6.18;;;486.40;1484.80;;;;;;5050261;28;20525;-73
2024/03/25 09:31:31;;;;;;;6.63;4.88;;;461.40;1510.40;;;;;;5050229;28;20031;-73
2024/03/25 09:33:56;;;;;;;18.75;12.98;;;461.00;1510.40;;;;;;5049305;28;20021;-74
2024/03/25 09:36:22;;;;;;;9.68;6.57;;;460.80;1536.00;;;;;;5050002;28;20027;-75
2024/03/25 09:38:48;;;;;;;10.20;6.80;;;436.10;1484.80;;;;;;5049636;28;20037;-76
2024/03/25 09:41:14;;;;;;;6.82;4.50;;;435.80;1484.80;;;;;;5041770;28;20029;-76
2024/03/25 09:43:43;;;;;;;10.50;5.40;;;410.50;1484.80;;;;;;5049631;28;20039;-75
2024/03/25 09:46:10;;;;;;;26.45;15.77;;;410.20;1536.00;;;;;;5049622;28;20032;-76
2024/03/25 09:48:37;;;;;;;21.95;13.75;;;409.90;1561.60;;;;;;5049259;28;20063;-76
2024/03/25 09:51:07;;;;;;;12.48;7.75;;;409.90;1561.60;;;;;;5035421;28;20045;-74
2024/03/25 09:53:33;;;;;;;19.30;11.20;;;410.00;1612.80;;;;;;5048895;28;20036;-75
2024/03/25 09:55:58;;;;;;;12.15;7.53;;;410.10;1587.20;;;;;;5049484;28;20029;-71
2024/03/25 09:58:28;;;;;;;6.60;4.82;;;409.90;1612.80;;;;;;5044815;28;20092;-76
2024/03/25 10:00:55;;;;;;;5.40;3.55;;;409.90;1612.80;;;;;;5049035;28;20088;-72
2024/03/25 10:03:21;;;;;;;7.45;4.78;;;409.70;1638.40;;;;;;5048646;28;20013;-74
2024/03/25 10:05:47;;;;;;;11.90;6.13;;;409.70;1612.80;;;;;;5049213;28;20049;-75
2024/03/25 10:08:13;;;;;;;10.90;7.07;;;409.70;1664.00;;;;;;5044909;28;20080;-75
2024/03/25 10:10:40;;;;;;;6.25;4.03;;;409.90;1587.20;;;;;;5037894;28;20037;-74
2024/03/25 10:13:06;;;;;;;12.45;7.65;;;409.90;1612.80;;;;;;5049709;28;20482;-73
2024/03/25 10:15:33;;;;;;;12.38;7.80;;;409.80;1587.20;;;;;;5039360;28;20021;-73
2024/03/25 10:17:59;;;;;;;5.93;3.47;;;409.90;1612.80;;;;;;5030315;28;20021;-75
2024/03/25 10:20:25;;;;;;;5.00;2.85;;;409.90;1587.20;;;;;;5031320;28;20498;-72
2024/03/25 10:22:51;;;;;;;4.85;2.45;;;410.20;1612.80;;;;;;5032512;28;20022;-73
2024/03/25 10:25:26;;;;;;;3.13;1.88;;;410.30;1612.80;;;;;;5056398;28;20037;-74
2024/03/25 10:27:58;;;;;;;4.30;2.05;;;410.20;1536.00;;;;;;5042286;28;20460;-73
2024/03/25 10:30:25;;;;;;;13.23;9.00;;;410.00;1536.00;;;;;;5048425;28;20035;-75
2024/03/25 10:33:05;;;;;;;5.35;3.47;;;410.00;1561.60;;;;;;5048084;28;20028;-73
2024/03/25 10:35:33;;;;;;;7.53;4.15;;;409.90;1638.40;;;;;;5048109;28;20082;-76
2024/03/25 10:38:03;;;;;;;4.53;2.63;;;409.90;1587.20;;;;;;5048550;28;20025;-74
2024/03/25 10:40:33;;;;;;;5.68;3.13;;;410.00;1561.60;;;;;;5045549;28;20173;-75
2024/03/25 10:43:03;;;;;;;3.15;1.90;;;410.30;1561.60;;;;;;5046132;28;20044;-73
2024/03/25 10:45:31;;;;;;;5.10;3.38;;;410.50;1510.40;;;;;;5042401;28;20024;-73
2024/03/25 10:48:13;;;;;;;6.07;3.78;;;410.40;1510.40;;;;;;5035208;28;20030;-74
2024/03/25 10:50:40;;;;;;;3.40;1.90;;;410.40;1561.60;;;;;;5049006;28;20102;-72
2024/03/25 10:53:08;;;;;;;2.80;1.75;;;410.30;1510.40;;;;;;5049169;28;20045;-75
2024/03/25 10:55:36;;;;;;;14.32;9.93;;;410.30;1510.40;;;;;;5047984;28;20100;-74
2024/03/25 10:58:03;;;;;;;7.53;4.70;;;410.20;1510.40;;;;;;5048486;28;20159;-75
2024/03/25 11:00:30;;;;;;;7.85;3.65;;;409.90;1536.00;;;;;;5036673;28;20029;-72
2024/03/25 11:02:57;;;;;;;5.85;3.22;;;410.00;1536.00;;;;;;5052823;28;20045;-72
2024/03/25 11:05:23;;;;;;;41.97;22.90;;;410.20;1536.00;;;;;;5052382;28;20032;-75
2024/03/25 11:07:49;;;;;;;7.25;3.75;;;410.30;1536.00;;;;;;5052355;28;20051;-71
2024/03/25 11:10:16;;;;;;;3.67;1.92;;;435.20;1536.00;;;;;;5051914;28;20096;-75
2024/03/25 11:12:45;;;;;;;8.30;6.55;;;435.30;1510.40;;;;;;5047973;28;20033;-73
2024/03/25 11:15:14;;;;;;;12.02;10.90;;;435.50;1433.60;;;;;;5049004;28;20025;-73
2024/03/25 11:17:49;;;;;;;13.90;10.10;;;435.40;1459.20;;;;;;5049363;28;20083;-74
2024/03/25 11:20:18;;;;;;;22.58;12.88;;;435.60;1510.40;;;;;;5047445;28;20044;-73
2024/03/25 11:22:53;;;;;;;29.65;17.13;;;435.70;1484.80;;;;;;5051690;28;20021;-73
2024/03/25 11:25:21;;;;;;;5.05;3.00;;;435.60;1484.80;;;;;;5051567;28;20389;-70
2024/03/25 11:27:47;;;;;;;9.30;2.58;;;435.60;1459.20;;;;;;5051476;28;20032;-72
2024/03/25 11:30:16;;;;;;;35.33;20.63;;;435.60;1433.60;;;;;;5052078;28;20029;-71
2024/03/25 11:32:55;;;;;;;7.25;4.75;;;435.80;1408.00;;;;;;5051999;28;20044;-72
2024/03/25 11:35:21;;;;;;;20.88;10.70;;;435.80;1433.60;;;;;;5051628;28;20021;-73
2024/03/25 11:37:50;;;;;;;6.40;5.28;;;435.70;1433.60;;;;;;5052140;28;20027;-74
2024/03/25 11:40:16;;;;;;;4.97;3.67;;;435.50;1433.60;;;;;;5044832;28;20056;-77
2024/03/25 11:42:43;;;;;;;3.15;1.80;;;435.60;1484.80;;;;;;5049010;28;20079;-75
2024/03/25 11:45:16;;;;;;;5.75;2.63;;;435.60;1484.80;;;;;;5050030;28;20024;-76
2024/03/25 11:47:42;;;;;;;;;;;435.60;1459.20;;;;;;5052151;28;20025;-75
2024/03/25 11:50:10;;;;;;;5.95;3.72;;;435.50;1510.40;;;;;;5051993;28;20003;-73
2024/03/25 11:52:36;;;;;;;2.78;1.77;;;435.50;1382.40;;;;;;5051756;28;20056;-72
2024/03/25 11:55:01;;;;;;;2.22;1.30;;;435.60;1510.40;;;;;;5047832;28;20060;-72
2024/03/25 11:57:28;;;;;;;2.63;1.50;;;435.70;1433.60;;;;;;5041167;28;20498;-74
2024/03/25 11:59:54;;;;;;;10.82;6.30;;;435.70;1459.20;;;;;;5038383;28;20080;-74
2024/03/25 12:02:20;;;;;;;22.08;14.60;;;435.80;1433.60;;;;;;5043203;28;20422;-73
2024/03/25 12:04:48;;;;;;;4.57;3.17;;;435.70;1382.40;;;;;;5035862;28;20053;-73
2024/03/25 12:07:14;;;;;;;7.95;5.35;;;435.90;1510.40;;;;;;5039881;28;20082;-73
2024/03/25 12:12:26;;;;;;;6.85;4.70;;;435.50;1433.60;;;;;;5040816;28;20063;-73
2024/03/25 12:14:53;;;;;;;3.47;2.05;;;435.70;1408.00;;;;;;5066439;28;20444;-73